Time;durP1;ratioP1;P1;durP2;ratioP2;P2;SDS_P1;SDS_P2;PMS_P1;PMS_P2;Temp;Humidity;BMP_temperature;BMP_pressure;BME280_temperature;BME280_humidity;BME280_pressure;Samples;Min_cycle;Max_cycle;Signal;HPM_P1;HPM_P2
2021/12/28 00:04:09;;;;;;;10.82;6.22;;;18.30;62.30;;;;;;10454783;27;20057;-58
2021/12/28 00:09:14;;;;;;;13.55;6.07;;;18.30;62.40;;;;;;10455023;28;20562;-58
2021/12/28 00:14:22;;;;;;;11.40;6.35;;;18.20;62.30;;;;;;10454896;28;20493;-58
2021/12/28 00:19:27;;;;;;;10.77;5.80;;;18.20;62.50;;;;;;10454335;28;20045;-58
2021/12/28 00:24:35;;;;;;;11.77;6.13;;;18.20;62.50;;;;;;10453779;28;20333;-57
2021/12/28 00:29:41;;;;;;;10.48;5.68;;;18.20;62.60;;;;;;10454062;28;20462;-57
2021/12/28 00:34:46;;;;;;;10.85;5.70;;;18.10;62.60;;;;;;10454293;28;20045;-58
2021/12/28 00:39:51;;;;;;;11.90;6.82;;;18.10;62.70;;;;;;10454046;28;20053;-58
2021/12/28 00:44:55;;;;;;;11.55;6.22;;;18.10;62.80;;;;;;10454167;28;20489;-58
2021/12/28 00:50:01;;;;;;;8.93;5.18;;;18.10;62.80;;;;;;10453769;28;20057;-58
2021/12/28 00:55:08;;;;;;;10.27;5.80;;;18.10;62.80;;;;;;10453375;28;20170;-58
2021/12/28 01:00:17;;;;;;;9.57;5.50;;;18.00;62.80;;;;;;10453502;28;20045;-58
2021/12/28 01:05:24;;;;;;;11.65;5.68;;;18.00;62.90;;;;;;10453068;28;20413;-58
2021/12/28 01:10:33;;;;;;;10.57;5.45;;;18.00;62.90;;;;;;10451742;28;20486;-58
2021/12/28 01:15:38;;;;;;;9.35;5.43;;;17.90;62.90;;;;;;10452517;28;20049;-58
2021/12/28 01:20:44;;;;;;;10.15;5.32;;;17.90;62.90;;;;;;10434605;28;20396;-58
2021/12/28 01:25:49;;;;;;;11.40;5.70;;;17.90;62.90;;;;;;10452191;28;20049;-58
2021/12/28 01:30:54;;;;;;;10.70;5.68;;;17.90;62.90;;;;;;10452779;28;20049;-59
2021/12/28 01:35:59;;;;;;;10.68;5.57;;;17.90;63.00;;;;;;10451599;28;20049;-58
2021/12/28 01:41:06;;;;;;;8.98;5.43;;;17.80;62.90;;;;;;10453252;28;20057;-58
2021/12/28 01:46:12;;;;;;;9.77;5.30;;;17.80;63.00;;;;;;10451948;28;20093;-58
2021/12/28 01:51:20;;;;;;;9.88;5.45;;;17.80;63.00;;;;;;10452009;28;20057;-58
2021/12/28 01:56:37;;;;;;;8.93;5.53;;;17.80;63.00;;;;;;10452777;28;20048;-57
2021/12/28 02:01:42;;;;;;;12.98;5.85;;;17.70;63.00;;;;;;10451442;28;20037;-57
2021/12/28 02:06:48;;;;;;;9.93;5.80;;;17.70;62.90;;;;;;10451563;28;20052;-58
2021/12/28 02:11:53;;;;;;;8.38;5.10;;;17.80;62.90;;;;;;10451161;28;20045;-58
2021/12/28 02:17:01;;;;;;;10.30;5.65;;;17.90;62.90;;;;;;10450422;28;20101;-58
2021/12/28 02:22:06;;;;;;;10.48;6.18;;;18.00;62.80;;;;;;10449663;28;20045;-58
2021/12/28 02:27:10;;;;;;;10.10;5.78;;;18.10;62.80;;;;;;10450237;28;20061;-58
2021/12/28 02:32:15;;;;;;;11.75;5.85;;;18.20;62.70;;;;;;10450961;28;20093;-58
2021/12/28 02:37:21;;;;;;;9.05;5.22;;;18.30;62.60;;;;;;10450105;28;20391;-58
2021/12/28 02:42:26;;;;;;;8.45;5.15;;;18.40;62.60;;;;;;10449854;28;20045;-58
2021/12/28 02:47:32;;;;;;;10.00;5.03;;;18.50;62.50;;;;;;10450124;28;20094;-58
2021/12/28 02:52:38;;;;;;;8.10;5.03;;;18.60;62.40;;;;;;10450215;28;20101;-58
2021/12/28 02:57:57;;;;;;;8.95;4.80;;;18.70;62.40;;;;;;10449397;28;20421;-58
2021/12/28 03:03:11;;;;;;;8.48;5.50;;;18.80;62.40;;;;;;10449562;27;20053;-58
2021/12/28 03:08:18;;;;;;;7.00;4.30;;;18.90;62.40;;;;;;10450777;28;20102;-58
2021/12/28 03:13:26;;;;;;;9.20;5.15;;;18.90;63.10;;;;;;10450001;28;20053;-58
2021/12/28 03:18:31;;;;;;;7.75;4.32;;;18.90;62.50;;;;;;10450081;28;20574;-58
2021/12/28 03:23:37;;;;;;;8.02;5.07;;;19.00;62.50;;;;;;10449437;28;20049;-58
2021/12/28 03:28:43;;;;;;;8.25;4.90;;;19.00;62.40;;;;;;10448771;28;20500;-58
2021/12/28 03:33:52;;;;;;;10.30;4.60;;;19.10;62.40;;;;;;10455480;28;20052;-58
2021/12/28 03:38:58;;;;;;;6.95;4.90;;;19.10;62.40;;;;;;10455441;28;20094;-58
2021/12/28 03:44:04;;;;;;;8.15;4.22;;;19.10;62.30;;;;;;10438540;28;20445;-58
2021/12/28 03:49:09;;;;;;;9.27;4.32;;;19.10;62.30;;;;;;10455565;28;20049;-58
2021/12/28 03:54:14;;;;;;;9.07;4.30;;;19.10;62.30;;;;;;10455497;28;20048;-59
2021/12/28 03:59:19;;;;;;;8.73;4.50;;;19.10;62.30;;;;;;10454952;28;20049;-59
2021/12/28 04:04:24;;;;;;;8.15;4.82;;;19.10;62.30;;;;;;10455474;28;20102;-58
2021/12/28 04:15:13;;;;;;;8.18;4.45;;;19.10;62.30;;;;;;10368910;28;20062;-58
2021/12/28 04:20:19;;;;;;;;;;;19.10;62.20;;;;;;10368809;28;20107;-58
2021/12/28 04:25:24;;;;;;;6.38;4.07;;;19.20;62.20;;;;;;10368641;28;19970;-58
2021/12/28 04:30:29;;;;;;;7.90;4.57;;;19.20;62.20;;;;;;10368197;28;20062;-58
2021/12/28 04:35:34;;;;;;;7.40;4.50;;;19.20;62.20;;;;;;10368071;28;20054;-58
2021/12/28 04:40:40;;;;;;;7.68;4.05;;;19.20;62.30;;;;;;10367463;28;20491;-58
2021/12/28 04:45:45;;;;;;;7.03;4.40;;;19.30;62.40;;;;;;10373097;28;20052;-58
2021/12/28 04:50:50;;;;;;;7.40;4.25;;;19.40;62.40;;;;;;10453921;28;20052;-58
2021/12/28 04:55:55;;;;;;;7.38;4.57;;;19.40;62.40;;;;;;10454932;28;20045;-59
2021/12/28 05:01:01;;;;;;;5.68;4.03;;;19.50;62.30;;;;;;10453776;28;20433;-58
2021/12/28 05:06:06;;;;;;;6.50;3.75;;;19.50;62.40;;;;;;10453364;27;20074;-58
2021/12/28 05:11:10;;;;;;;10.05;4.20;;;19.50;62.30;;;;;;10452623;28;20102;-58
2021/12/28 05:16:16;;;;;;;10.88;3.22;;;19.60;62.20;;;;;;10453135;28;20045;-58
2021/12/28 05:21:21;;;;;;;7.25;3.03;;;19.60;62.30;;;;;;10452372;28;20105;-59
2021/12/28 05:26:26;;;;;;;9.82;3.15;;;19.60;62.30;;;;;;10435208;28;20561;-58
2021/12/28 05:31:31;;;;;;;6.97;2.75;;;19.70;62.40;;;;;;10451762;28;20057;-58
2021/12/28 05:36:36;;;;;;;7.68;3.35;;;19.70;62.30;;;;;;10452267;28;20056;-58
2021/12/28 05:41:41;;;;;;;5.60;3.05;;;19.80;62.10;;;;;;10451512;28;20117;-58
2021/12/28 05:46:46;;;;;;;4.97;3.17;;;19.90;62.20;;;;;;10451855;28;20549;-58
2021/12/28 05:51:52;;;;;;;10.40;3.33;;;19.90;62.10;;;;;;10451775;28;20052;-58
2021/12/28 05:56:56;;;;;;;12.00;4.22;;;20.00;62.10;;;;;;10450872;28;20470;-59
2021/12/28 06:02:03;;;;;;;6.78;3.47;;;20.00;61.90;;;;;;10450663;27;20167;-57
2021/12/28 06:07:08;;;;;;;7.93;3.63;;;20.10;61.80;;;;;;10450522;28;20049;-57
2021/12/28 06:12:12;;;;;;;12.13;4.82;;;20.10;62.30;;;;;;10450613;28;20105;-57
2021/12/28 06:17:17;;;;;;;14.48;4.85;;;20.10;61.60;;;;;;10451494;28;20078;-58
2021/12/28 06:22:22;;;;;;;22.05;4.05;;;20.10;61.50;;;;;;10450111;28;20052;-58
2021/12/28 06:27:27;;;;;;;11.38;3.20;;;20.00;61.50;;;;;;10450742;28;20446;-58
2021/12/28 06:32:32;;;;;;;6.45;2.00;;;19.90;61.50;;;;;;10449932;28;20390;-58
2021/12/28 06:37:38;;;;;;;2.63;1.50;;;19.90;61.60;;;;;;10449995;28;20052;-58
2021/12/28 06:42:43;;;;;;;2.28;1.42;;;19.80;61.60;;;;;;10450246;28;20493;-58
2021/12/28 06:47:48;;;;;;;2.63;1.00;;;19.80;61.60;;;;;;10449466;28;20064;-58
2021/12/28 06:52:53;;;;;;;2.20;1.70;;;19.70;61.70;;;;;;10449567;28;20098;-58
2021/12/28 06:57:58;;;;;;;1.95;1.40;;;19.70;61.60;;;;;;10449861;28;20397;-58
2021/12/28 07:03:04;;;;;;;4.65;1.52;;;19.70;61.50;;;;;;10449550;27;20045;-58
2021/12/28 07:08:09;;;;;;;2.22;1.55;;;19.70;61.30;;;;;;10454255;28;20053;-58
2021/12/28 07:13:14;;;;;;;3.30;1.85;;;19.70;61.10;;;;;;10456449;28;20057;-58
2021/12/28 07:18:19;;;;;;;2.72;1.75;;;19.70;61.70;;;;;;10457260;28;20455;-58
2021/12/28 07:23:24;;;;;;;2.92;1.83;;;19.60;61.00;;;;;;10456584;28;20045;-58
2021/12/28 07:28:29;;;;;;;3.55;2.05;;;19.60;61.00;;;;;;10456416;28;20045;-58
2021/12/28 07:33:34;;;;;;;3.33;2.10;;;19.60;61.00;;;;;;10456268;28;20041;-58
2021/12/28 07:38:39;;;;;;;3.10;2.10;;;19.50;60.90;;;;;;10455412;28;20053;-58
2021/12/28 07:43:44;;;;;;;3.15;2.13;;;19.50;60.90;;;;;;10438030;28;20049;-58
2021/12/28 07:48:49;;;;;;;2.58;1.92;;;19.40;60.90;;;;;;10455319;28;20386;-58
2021/12/28 07:53:54;;;;;;;2.95;2.25;;;19.40;60.90;;;;;;10455712;28;20075;-58
2021/12/28 07:58:59;;;;;;;3.67;2.30;;;19.30;60.90;;;;;;10455664;28;20053;-58
2021/12/28 08:04:04;;;;;;;4.25;2.45;;;19.30;60.90;;;;;;10454989;27;20406;-58
2021/12/28 08:09:09;;;;;;;4.82;2.58;;;19.20;60.80;;;;;;10454728;28;20052;-58
2021/12/28 08:14:13;;;;;;;4.13;2.58;;;19.20;60.80;;;;;;10454296;28;20056;-58
2021/12/28 08:19:18;;;;;;;3.60;2.40;;;19.10;60.80;;;;;;10453793;28;20413;-58
2021/12/28 08:24:23;;;;;;;3.80;2.60;;;19.10;60.80;;;;;;10453861;28;20101;-58
2021/12/28 08:29:28;;;;;;;4.25;2.55;;;19.00;60.80;;;;;;10453767;28;20045;-58
2021/12/28 08:34:32;;;;;;;3.75;2.10;;;19.00;60.80;;;;;;10453682;28;20417;-58
2021/12/28 08:39:37;;;;;;;4.10;2.60;;;19.00;60.80;;;;;;10453705;28;20446;-58
2021/12/28 08:44:43;;;;;;;4.10;2.75;;;18.90;60.70;;;;;;10453648;28;20053;-58
2021/12/28 08:49:47;;;;;;;3.50;2.55;;;18.90;60.80;;;;;;10453799;28;20041;-58
2021/12/28 08:54:53;;;;;;;3.40;2.63;;;18.90;60.70;;;;;;10436254;28;20053;-58
2021/12/28 08:59:57;;;;;;;4.80;2.90;;;18.80;60.80;;;;;;10452932;28;20056;-58
2021/12/28 09:05:02;;;;;;;5.30;2.95;;;18.80;60.70;;;;;;10452657;28;20049;-58
2021/12/28 09:10:08;;;;;;;4.22;2.90;;;18.80;60.70;;;;;;10435803;28;20049;-58
2021/12/28 09:15:13;;;;;;;5.00;3.20;;;18.80;60.70;;;;;;10453151;28;20053;-58
2021/12/28 09:20:22;;;;;;;5.40;3.10;;;18.90;60.70;;;;;;10452562;28;20045;-58
2021/12/28 09:25:41;;;;;;;4.28;2.67;;;18.90;60.50;;;;;;10452669;28;20102;-58
2021/12/28 09:30:46;;;;;;;5.68;3.08;;;19.00;60.50;;;;;;10452539;28;20057;-58
2021/12/28 09:35:52;;;;;;;5.10;3.03;;;19.10;60.50;;;;;;10452655;28;20048;-58
2021/12/28 09:40:57;;;;;;;4.60;3.00;;;19.10;60.40;;;;;;10452286;28;20041;-58
2021/12/28 09:46:02;;;;;;;4.82;2.83;;;19.20;60.30;;;;;;10451269;28;20101;-58
2021/12/28 09:51:08;;;;;;;4.85;3.15;;;19.30;60.30;;;;;;10451205;28;20105;-58
2021/12/28 09:56:13;;;;;;;4.25;3.13;;;19.40;60.30;;;;;;10451890;28;20049;-58
2021/12/28 10:01:20;;;;;;;4.38;2.92;;;19.40;60.30;;;;;;10452001;28;20045;-58
2021/12/28 10:06:28;;;;;;;5.50;2.95;;;19.40;60.10;;;;;;10450835;27;20049;-58
2021/12/28 10:11:44;;;;;;;6.00;3.10;;;19.40;60.10;;;;;;10450460;28;20048;-58
2021/12/28 10:16:57;;;;;;;3.80;2.83;;;19.50;60.10;;;;;;10451028;28;20155;-58
2021/12/28 10:22:34;;;;;;;4.50;3.00;;;19.50;60.10;;;;;;10450949;28;20041;-58
2021/12/28 10:27:43;;;;;;;5.60;3.50;;;19.50;60.10;;;;;;10450284;28;20112;-59
2021/12/28 10:32:51;;;;;;;5.20;3.00;;;19.50;60.10;;;;;;10449984;28;20494;-58
2021/12/28 10:38:14;;;;;;;4.28;2.92;;;19.50;60.00;;;;;;10450040;28;20085;-58
2021/12/28 10:43:34;;;;;;;4.97;2.90;;;19.50;59.90;;;;;;10449670;28;20052;-58
2021/12/28 10:48:48;;;;;;;5.90;3.53;;;19.50;59.90;;;;;;10450337;28;20041;-58
2021/12/28 10:59:10;;;;;;;4.80;3.17;;;19.50;59.80;;;;;;10450454;28;20048;-58
2021/12/28 11:04:16;;;;;;;4.88;3.13;;;19.40;59.70;;;;;;10449243;28;20053;-59
2021/12/28 11:09:26;;;;;;;3.88;2.97;;;19.40;59.70;;;;;;10449986;28;20086;-58
2021/12/28 11:14:31;;;;;;;5.25;3.15;;;19.40;59.60;;;;;;10449147;28;20049;-58
2021/12/28 11:19:37;;;;;;;3.70;2.72;;;19.40;59.60;;;;;;10448475;28;20053;-58
2021/12/28 11:24:47;;;;;;;5.25;3.00;;;19.40;59.70;;;;;;10449646;28;20049;-58
2021/12/28 11:29:52;;;;;;;5.28;3.00;;;19.30;59.70;;;;;;10448681;28;20117;-58
2021/12/28 11:34:57;;;;;;;4.28;2.97;;;19.30;59.70;;;;;;10448431;28;20053;-59
2021/12/28 11:40:08;;;;;;;4.05;2.78;;;19.30;59.80;;;;;;10448436;28;20049;-58
2021/12/28 11:45:13;;;;;;;8.25;3.10;;;19.30;59.80;;;;;;10449286;28;20053;-59
2021/12/28 11:50:19;;;;;;;4.35;2.88;;;19.40;59.90;;;;;;10448249;28;20117;-59
2021/12/28 11:55:24;;;;;;;5.90;2.90;;;19.40;59.80;;;;;;10454486;28;20071;-59
2021/12/28 12:00:40;;;;;;;4.75;2.92;;;19.50;59.80;;;;;;10454970;28;20056;-59
2021/12/28 12:05:45;;;;;;;4.18;2.92;;;19.50;59.80;;;;;;10455561;27;20080;-59
2021/12/28 12:11:00;;;;;;;3.20;2.63;;;19.60;59.70;;;;;;10455079;28;20045;-59
2021/12/28 12:16:16;;;;;;;7.70;3.53;;;19.60;59.70;;;;;;10455486;28;20550;-59
2021/12/28 12:21:21;;;;;;;3.90;2.85;;;19.70;59.70;;;;;;10454309;28;20074;-59
2021/12/28 12:26:34;;;;;;;3.60;2.67;;;19.70;59.60;;;;;;10454869;28;20049;-59
2021/12/28 12:31:41;;;;;;;3.75;2.42;;;19.80;59.50;;;;;;10437609;28;20057;-59
2021/12/28 12:36:48;;;;;;;4.45;2.70;;;19.80;59.50;;;;;;10454380;28;20478;-59
2021/12/28 12:41:56;;;;;;;6.10;3.00;;;19.90;59.50;;;;;;10454561;28;20566;-59
2021/12/28 12:47:08;;;;;;;4.70;2.83;;;19.90;59.40;;;;;;10454238;28;20053;-59
2021/12/28 12:52:18;;;;;;;4.18;2.90;;;20.00;59.40;;;;;;10453025;28;20056;-59
2021/12/28 12:57:30;;;;;;;3.42;2.53;;;20.00;59.40;;;;;;10454174;28;20049;-59
2021/12/28 13:02:37;;;;;;;4.78;2.83;;;20.00;59.90;;;;;;10434588;28;20053;-59
2021/12/28 13:07:43;;;;;;;5.47;3.60;;;20.10;59.40;;;;;;10453589;28;20481;-59
2021/12/28 13:12:54;;;;;;;5.35;2.97;;;20.10;59.70;;;;;;10453245;28;20041;-59
2021/12/28 13:18:00;;;;;;;5.15;3.33;;;20.20;60.40;;;;;;10453094;28;20398;-58
2021/12/28 13:23:09;;;;;;;6.43;3.38;;;20.20;60.90;;;;;;10452377;28;20045;-59
2021/12/28 13:28:19;;;;;;;7.70;3.28;;;20.20;61.40;;;;;;10451962;28;20121;-59
2021/12/28 13:33:29;;;;;;;4.22;3.20;;;20.20;61.90;;;;;;10451967;28;20101;-59
2021/12/28 13:38:34;;;;;;;5.57;3.05;;;20.20;62.40;;;;;;10451818;28;20057;-59
2021/12/28 13:43:39;;;;;;;6.88;3.33;;;20.20;62.80;;;;;;10452104;28;20049;-59
2021/12/28 13:48:46;;;;;;;5.38;3.15;;;20.10;63.10;;;;;;10450995;28;20048;-59
2021/12/28 13:54:00;;;;;;;4.43;3.10;;;20.10;63.50;;;;;;10451873;28;20062;-59
2021/12/28 13:59:11;;;;;;;3.92;3.10;;;20.10;63.90;;;;;;10451033;28;20056;-59
2021/12/28 14:04:18;;;;;;;4.97;3.13;;;20.00;64.20;;;;;;10450518;28;20049;-59
2021/12/28 14:09:26;;;;;;;4.90;3.33;;;20.00;64.50;;;;;;10451438;28;20402;-59
2021/12/28 14:14:35;;;;;;;5.53;3.08;;;20.00;64.70;;;;;;10450651;28;20045;-59
2021/12/28 14:19:51;;;;;;;3.78;2.88;;;20.00;65.00;;;;;;10452257;28;20052;-59
2021/12/28 14:24:57;;;;;;;4.28;2.83;;;20.00;65.20;;;;;;10451173;27;20044;-59
2021/12/28 14:30:15;;;;;;;4.47;3.53;;;19.90;65.50;;;;;;10432731;28;20102;-59
2021/12/28 14:35:26;;;;;;;5.07;3.17;;;19.90;65.80;;;;;;10433400;28;20421;-59
2021/12/28 14:40:34;;;;;;;4.90;3.53;;;19.80;65.90;;;;;;10449890;28;20053;-59
2021/12/28 14:45:39;;;;;;;6.50;3.47;;;19.80;66.10;;;;;;10450505;28;20053;-59
2021/12/28 14:50:44;;;;;;;5.75;3.63;;;19.70;66.30;;;;;;10432960;28;20049;-59
2021/12/28 14:55:49;;;;;;;9.02;3.65;;;19.70;66.50;;;;;;10450587;28;20074;-59
2021/12/28 15:00:55;;;;;;;6.38;4.13;;;19.70;66.70;;;;;;10449549;28;20045;-59
2021/12/28 15:06:05;;;;;;;6.07;3.67;;;19.60;66.80;;;;;;10449659;27;20102;-59
2021/12/28 15:11:10;;;;;;;6.43;3.75;;;19.50;66.90;;;;;;10449173;28;20473;-59
2021/12/28 15:16:15;;;;;;;4.88;3.13;;;19.50;67.10;;;;;;10448925;28;20053;-59
2021/12/28 15:21:21;;;;;;;4.53;3.35;;;19.50;67.20;;;;;;10448698;28;20577;-59
2021/12/28 15:26:28;;;;;;;6.72;4.28;;;19.50;67.40;;;;;;10450567;28;20045;-58
2021/12/28 15:31:34;;;;;;;6.45;4.05;;;19.40;67.40;;;;;;10456907;28;20501;-59
2021/12/28 15:36:40;;;;;;;6.72;3.58;;;19.40;67.60;;;;;;10455998;28;20053;-59
2021/12/28 15:41:48;;;;;;;5.78;3.70;;;19.30;67.70;;;;;;10456203;28;20481;-59
2021/12/28 15:46:54;;;;;;;6.25;3.80;;;19.30;67.70;;;;;;10455173;28;20052;-59
2021/12/28 15:52:00;;;;;;;4.13;3.35;;;19.20;67.70;;;;;;10455927;28;20037;-59
2021/12/28 15:57:05;;;;;;;4.40;3.40;;;19.20;67.90;;;;;;10456358;28;20053;-58
2021/12/28 16:02:10;;;;;;;5.32;3.65;;;19.10;67.90;;;;;;10455237;28;20077;-58
2021/12/28 16:07:16;;;;;;;6.20;3.70;;;19.10;67.90;;;;;;10454951;28;20094;-58
2021/12/28 16:12:21;;;;;;;4.85;3.38;;;19.00;67.80;;;;;;10455667;28;20053;-58
2021/12/28 16:17:27;;;;;;;4.72;3.22;;;19.00;67.90;;;;;;10455219;28;20044;-58
2021/12/28 16:22:32;;;;;;;5.75;4.07;;;19.00;67.90;;;;;;10437995;28;20097;-58
2021/12/28 16:27:37;;;;;;;4.75;3.47;;;19.00;68.00;;;;;;10454588;28;20041;-58
2021/12/28 16:32:42;;;;;;;4.88;3.35;;;19.00;68.00;;;;;;10454027;28;20049;-58
2021/12/28 16:37:47;;;;;;;6.40;3.60;;;19.10;67.90;;;;;;10453221;28;20102;-58
2021/12/28 16:42:52;;;;;;;7.65;4.00;;;19.20;67.90;;;;;;10453576;28;20049;-58
2021/12/28 16:47:57;;;;;;;4.70;3.58;;;19.30;68.00;;;;;;10453908;28;20109;-58
2021/12/28 16:53:04;;;;;;;4.65;3.47;;;19.30;68.00;;;;;;10453884;28;20045;-58
2021/12/28 16:58:10;;;;;;;4.63;3.05;;;19.40;68.00;;;;;;10453182;28;20049;-58
2021/12/28 17:03:15;;;;;;;3.55;2.85;;;19.50;67.90;;;;;;10452649;27;20065;-58
2021/12/28 17:08:20;;;;;;;7.50;3.40;;;19.50;67.90;;;;;;10453581;28;20086;-58
2021/12/28 17:13:25;;;;;;;3.67;2.60;;;19.60;67.90;;;;;;10453518;28;20436;-58
2021/12/28 17:18:30;;;;;;;6.25;3.45;;;19.60;67.80;;;;;;10452255;28;20510;-58
2021/12/28 17:23:35;;;;;;;4.65;3.33;;;19.70;67.80;;;;;;10452269;28;20557;-58
2021/12/28 17:28:43;;;;;;;5.15;3.80;;;19.80;67.70;;;;;;10452058;28;20106;-58
2021/12/28 17:33:48;;;;;;;6.20;3.70;;;19.80;67.60;;;;;;10452125;28;20093;-58
2021/12/28 17:38:53;;;;;;;4.80;3.45;;;19.90;67.70;;;;;;10451668;28;20049;-58
2021/12/28 17:43:58;;;;;;;6.28;3.97;;;19.90;67.60;;;;;;10434894;28;20098;-58
2021/12/28 17:49:04;;;;;;;5.68;3.60;;;20.00;67.50;;;;;;10451569;28;20045;-57
2021/12/28 17:54:10;;;;;;;6.53;3.72;;;20.00;67.40;;;;;;10451824;28;20040;-58
2021/12/28 17:59:15;;;;;;;8.80;4.10;;;20.00;67.10;;;;;;10451233;28;20137;-58
2021/12/28 18:04:20;;;;;;;6.03;3.75;;;20.00;67.10;;;;;;10450471;27;20053;-58
2021/12/28 18:09:26;;;;;;;7.45;4.47;;;20.00;67.00;;;;;;10445557;28;20080;-57
2021/12/28 18:14:31;;;;;;;8.93;4.75;;;20.00;66.80;;;;;;10450272;28;20550;-56
2021/12/28 18:19:36;;;;;;;10.50;5.82;;;20.00;66.40;;;;;;10449884;28;20049;-56
2021/12/28 18:24:41;;;;;;;9.80;5.80;;;20.00;65.80;;;;;;10450279;28;20061;-56
2021/12/28 18:29:45;;;;;;;9.45;5.45;;;20.00;65.30;;;;;;10450837;28;20041;-55
2021/12/28 18:34:50;;;;;;;10.90;5.57;;;20.00;65.10;;;;;;10450632;28;20053;-56
2021/12/28 18:39:54;;;;;;;9.60;6.18;;;20.00;64.80;;;;;;10433589;28;20052;-56
2021/12/28 18:45:02;;;;;;;9.93;5.95;;;19.90;64.60;;;;;;10450568;28;20094;-56
2021/12/28 18:50:07;;;;;;;10.85;7.22;;;19.90;64.40;;;;;;10449689;28;20045;-56
2021/12/28 18:55:13;;;;;;;11.90;6.78;;;19.80;64.20;;;;;;10450327;28;20082;-56
2021/12/28 19:00:23;;;;;;;13.27;7.53;;;19.80;64.10;;;;;;10447455;28;20102;-56
2021/12/28 19:05:49;;;;;;;12.57;7.25;;;19.80;64.50;;;;;;10401747;28;20050;-56
2021/12/28 19:10:54;;;;;;;13.40;7.47;;;19.70;63.80;;;;;;10415363;28;20098;-57
2021/12/28 19:15:59;;;;;;;12.63;7.03;;;19.70;63.60;;;;;;10397533;28;20049;-56
2021/12/28 19:21:04;;;;;;;14.85;8.48;;;19.70;63.70;;;;;;10412284;28;20075;-55
2021/12/28 19:26:10;;;;;;;25.98;8.10;;;19.50;62.10;;;;;;10397713;28;20107;-55
2021/12/28 19:31:16;;;;;;;15.95;6.05;;;19.30;62.60;;;;;;10415320;28;20045;-55
2021/12/28 19:36:22;;;;;;;6.75;3.80;;;19.30;62.90;;;;;;10415527;28;20063;-55
2021/12/28 19:41:27;;;;;;;8.07;3.67;;;19.30;63.20;;;;;;10414998;28;20042;-55
2021/12/28 19:46:33;;;;;;;3.05;2.20;;;19.30;63.40;;;;;;10415188;28;20049;-54
2021/12/28 19:51:38;;;;;;;2.30;1.55;;;19.30;63.70;;;;;;10415161;28;20063;-54
2021/12/28 19:56:48;;;;;;;4.05;1.23;;;19.30;63.90;;;;;;10414005;28;20079;-54
2021/12/28 20:01:54;;;;;;;2.33;1.30;;;19.20;64.20;;;;;;10413852;28;20053;-56
2021/12/28 20:07:00;;;;;;;13.73;1.27;;;19.20;64.40;;;;;;10414460;28;20054;-54
2021/12/28 20:12:06;;;;;;;1.73;1.30;;;19.30;64.70;;;;;;10414105;28;20050;-55
2021/12/28 20:17:11;;;;;;;8.90;1.42;;;19.40;64.80;;;;;;10414123;28;20087;-55
2021/12/28 20:22:17;;;;;;;2.55;1.52;;;19.50;64.70;;;;;;10396898;28;20049;-55
2021/12/28 20:27:22;;;;;;;2.80;1.50;;;19.50;64.70;;;;;;10414498;28;20050;-56
2021/12/28 20:32:27;;;;;;;2.75;1.70;;;19.60;64.70;;;;;;10413435;28;20402;-53
2021/12/28 20:37:32;;;;;;;2.15;1.50;;;19.60;64.70;;;;;;10413210;28;20045;-55
2021/12/28 20:42:37;;;;;;;1.45;1.35;;;19.70;64.80;;;;;;10413457;28;20447;-54
2021/12/28 20:47:45;;;;;;;2.25;1.40;;;19.80;64.80;;;;;;10413697;28;20049;-56
2021/12/28 20:52:51;;;;;;;2.75;1.67;;;19.80;64.80;;;;;;10394949;28;20053;-55
2021/12/28 20:57:56;;;;;;;3.40;1.90;;;19.90;64.80;;;;;;10413649;28;20046;-56
2021/12/28 21:03:03;;;;;;;2.90;1.70;;;19.90;64.80;;;;;;10412451;28;20429;-56
2021/12/28 21:08:08;;;;;;;2.20;1.50;;;20.00;64.70;;;;;;10411841;28;20083;-56
2021/12/28 21:13:13;;;;;;;2.17;1.67;;;20.00;64.70;;;;;;10394627;28;20168;-56
2021/12/28 21:18:30;;;;;;;2.45;1.98;;;20.00;64.70;;;;;;10411671;28;20071;-56
2021/12/28 21:23:35;;;;;;;3.00;2.15;;;20.00;64.70;;;;;;10411802;28;20050;-55
2021/12/28 21:28:40;;;;;;;2.22;1.90;;;20.10;64.70;;;;;;10410909;28;20045;-55
2021/12/28 21:33:45;;;;;;;3.15;2.25;;;20.00;64.70;;;;;;10411919;28;20057;-55
2021/12/28 21:38:50;;;;;;;4.03;1.75;;;20.10;64.70;;;;;;10411049;28;20383;-55
2021/12/28 21:43:54;;;;;;;2.50;2.00;;;20.10;64.70;;;;;;10410595;28;20098;-56
2021/12/28 21:48:59;;;;;;;3.50;2.20;;;20.10;64.70;;;;;;10410866;28;20099;-55
2021/12/28 21:54:04;;;;;;;2.95;1.83;;;20.00;64.70;;;;;;10410920;28;20053;-54
2021/12/28 21:59:10;;;;;;;9.35;5.15;;;20.10;64.70;;;;;;10410966;28;20122;-56
2021/12/28 22:04:16;;;;;;;12.00;5.30;;;19.70;61.10;;;;;;10410681;28;20401;-54
2021/12/28 22:09:21;;;;;;;23.08;4.30;;;19.60;63.20;;;;;;10410305;28;20042;-56
2021/12/28 22:14:26;;;;;;;12.50;4.38;;;19.70;63.30;;;;;;10425989;28;20053;-56
2021/12/28 22:19:31;;;;;;;5.53;3.55;;;19.70;63.00;;;;;;10409554;28;20054;-55
2021/12/28 22:24:36;;;;;;;7.97;4.00;;;19.70;63.10;;;;;;10409335;28;20053;-56
2021/12/28 22:29:43;;;;;;;5.53;3.45;;;19.70;63.20;;;;;;10410029;28;20038;-56
2021/12/28 22:34:51;;;;;;;620.45;70.65;;;19.70;63.30;;;;;;10410289;28;20087;-55
2021/12/28 22:39:55;;;;;;;5.93;3.22;;;19.70;63.40;;;;;;10390808;28;20050;-56
2021/12/28 22:45:00;;;;;;;7.80;3.08;;;19.60;63.50;;;;;;10409081;28;20375;-55
2021/12/28 22:50:07;;;;;;;8.70;3.80;;;19.60;63.50;;;;;;10409524;28;20050;-56
2021/12/28 22:55:17;;;;;;;9.63;3.65;;;19.60;63.60;;;;;;10409621;28;20049;-54
2021/12/28 23:00:49;;;;;;;5.88;3.40;;;19.50;63.60;;;;;;10392378;28;20090;-55
2021/12/28 23:05:54;;;;;;;5.93;3.22;;;19.50;63.60;;;;;;10408635;28;20387;-56
2021/12/28 23:11:00;;;;;;;6.40;3.50;;;19.50;63.70;;;;;;10408370;28;20050;-54
2021/12/28 23:16:06;;;;;;;3.88;3.08;;;19.50;63.70;;;;;;10408921;28;20056;-55
2021/12/28 23:21:11;;;;;;;7.70;2.95;;;19.50;63.80;;;;;;10423745;28;20551;-55
2021/12/28 23:26:17;;;;;;;7.10;3.03;;;19.40;63.70;;;;;;10408767;28;20061;-55
2021/12/28 23:31:23;;;;;;;7.20;3.20;;;19.40;63.80;;;;;;10408352;28;20049;-55
2021/12/28 23:36:28;;;;;;;7.50;3.30;;;19.40;63.90;;;;;;10407805;28;20071;-56
2021/12/28 23:41:35;;;;;;;6.57;3.50;;;19.30;63.90;;;;;;10407449;28;20054;-56
2021/12/28 23:46:39;;;;;;;6.63;3.53;;;19.30;64.10;;;;;;10407293;28;20098;-55
2021/12/28 23:51:45;;;;;;;7.60;3.67;;;19.30;64.20;;;;;;10414128;28;20056;-56
2021/12/28 23:56:50;;;;;;;5.88;3.25;;;19.30;65.00;;;;;;10414784;28;20111;-56
